メインページ
METAR-TAF:

METAR-TAF

空港 :

バーレーン, バーレーン

バーレーン国際空港

緯度: 26-16N, 経度: 050-39E, 海抜: 2m

現時点の気象観測

当レポートは17分前の05:30(UTC)に作成
変向風 3kt
気温 35°C
湿度 80%
気圧 1001 hPa
視程: 5000m
煙霧

METAR: OBBI 200530Z VRB03KT 5000 HZ NSC 35/31 Q1001 NOSIG

時間: 08:47 (05:47 UTC)

予報

当レポートは47分前の05:00(UTC)に作成
予報は20日の 06時(UTC)から 21日の 12時(UTC)まで有効
北東の風 10kt
視程: 7000m
20日の 18時(UTC)から 20日の 20時(UTC)まで徐々に
変向風 5kt
確率 30% :
20日の 21時(UTC)から 21日の 04時(UTC)まで一時的に
視程: 4000m
煙霧
21日の 07時(UTC)から 21日の 09時(UTC)まで徐々に
東/北東の風 10kt

TAF: OBBI 200500Z 2006/2112 04010KT 7000 NSC BECMG 2018/2020 VRB05KT PROB30 TEMPO 2021/2104 4000 HZ BECMG 2107/2109 06010KT

4,000以上の空港の気象観測と天気予報(METAR報とTAF報)

利用可能な観測所は地図上に黄色い丸と赤い丸で示す。

丸の上にカーソルを重ねると観測所名を参照できる。

次にクリックすると気象観測と天気予報を参照できる。

マップの切り替え:黒色「×」印の緑ボタンをクリックして拡大、「-」印の緑ボタンをクリックして縮小、緑色の三角印をクリックして隣りの地図に切り替え


METAR-TAF: